sensor_id;sensor_type;location;lat;lon;timestamp;temperature;humidity
72591;SHT31;60625;51.212;5.952;2023-07-24T00:04:45;18.62;84.93
72591;SHT31;60625;51.212;5.952;2023-07-24T00:09:45;18.61;84.90
72591;SHT31;60625;51.212;5.952;2023-07-24T00:14:46;18.63;84.96
72591;SHT31;60625;51.212;5.952;2023-07-24T00:19:46;18.64;85.05
72591;SHT31;60625;51.212;5.952;2023-07-24T00:24:48;18.65;85.22
72591;SHT31;60625;51.212;5.952;2023-07-24T00:29:48;18.67;85.31
72591;SHT31;60625;51.212;5.952;2023-07-24T00:34:48;18.67;85.43
72591;SHT31;60625;51.212;5.952;2023-07-24T00:39:49;18.69;85.55
72591;SHT31;60625;51.212;5.952;2023-07-24T00:44:51;18.69;85.61
72591;SHT31;60625;51.212;5.952;2023-07-24T00:49:52;18.68;85.64
72591;SHT31;60625;51.212;5.952;2023-07-24T00:54:54;18.69;85.78
72591;SHT31;60625;51.212;5.952;2023-07-24T00:59:55;18.68;85.75
72591;SHT31;60625;51.212;5.952;2023-07-24T01:04:55;18.67;85.80
72591;SHT31;60625;51.212;5.952;2023-07-24T01:09:56;18.67;85.69
72591;SHT31;60625;51.212;5.952;2023-07-24T01:15:06;18.65;85.73
72591;SHT31;60625;51.212;5.952;2023-07-24T01:20:15;18.65;85.81
72591;SHT31;60625;51.212;5.952;2023-07-24T01:25:18;18.66;85.83
72591;SHT31;60625;51.212;5.952;2023-07-24T01:30:29;18.66;85.89
72591;SHT31;60625;51.212;5.952;2023-07-24T01:35:29;18.67;85.89
72591;SHT31;60625;51.212;5.952;2023-07-24T01:40:32;18.68;85.88
72591;SHT31;60625;51.212;5.952;2023-07-24T01:45:33;18.68;85.97
72591;SHT31;60625;51.212;5.952;2023-07-24T01:50:33;18.70;85.96
72591;SHT31;60625;51.212;5.952;2023-07-24T01:55:34;18.72;85.92
72591;SHT31;60625;51.212;5.952;2023-07-24T02:00:34;18.73;85.92
72591;SHT31;60625;51.212;5.952;2023-07-24T02:05:35;18.76;85.86
72591;SHT31;60625;51.212;5.952;2023-07-24T02:10:38;18.78;85.79
72591;SHT31;60625;51.212;5.952;2023-07-24T02:15:39;18.82;85.64
72591;SHT31;60625;51.212;5.952;2023-07-24T02:20:40;18.86;85.45
72591;SHT31;60625;51.212;5.952;2023-07-24T02:25:41;18.89;85.42
72591;SHT31;60625;51.212;5.952;2023-07-24T02:30:43;18.91;85.49
72591;SHT31;60625;51.212;5.952;2023-07-24T02:35:43;18.91;85.52
72591;SHT31;60625;51.212;5.952;2023-07-24T02:40:44;18.92;85.55
72591;SHT31;60625;51.212;5.952;2023-07-24T02:45:45;18.91;85.67
72591;SHT31;60625;51.212;5.952;2023-07-24T02:50:49;18.88;85.89
72591;SHT31;60625;51.212;5.952;2023-07-24T02:55:49;18.84;86.13
72591;SHT31;60625;51.212;5.952;2023-07-24T03:00:49;18.81;86.25
72591;SHT31;60625;51.212;5.952;2023-07-24T03:05:50;18.79;86.18
72591;SHT31;60625;51.212;5.952;2023-07-24T03:10:50;18.79;86.17
72591;SHT31;60625;51.212;5.952;2023-07-24T03:15:55;18.78;86.07
72591;SHT31;60625;51.212;5.952;2023-07-24T03:20:58;18.78;86.14
72591;SHT31;60625;51.212;5.952;2023-07-24T03:25:59;18.77;86.07
72591;SHT31;60625;51.212;5.952;2023-07-24T03:30:59;18.77;86.06
72591;SHT31;60625;51.212;5.952;2023-07-24T03:36:00;18.74;86.25
72591;SHT31;60625;51.212;5.952;2023-07-24T03:41:02;18.72;86.39
72591;SHT31;60625;51.212;5.952;2023-07-24T03:46:04;18.67;86.54
72591;SHT31;60625;51.212;5.952;2023-07-24T03:51:04;18.64;86.61
72591;SHT31;60625;51.212;5.952;2023-07-24T03:56:05;18.63;86.69
72591;SHT31;60625;51.212;5.952;2023-07-24T04:01:06;18.59;86.90
72591;SHT31;60625;51.212;5.952;2023-07-24T04:06:08;18.57;86.88
72591;SHT31;60625;51.212;5.952;2023-07-24T04:11:08;18.56;86.86
72591;SHT31;60625;51.212;5.952;2023-07-24T04:16:09;18.54;86.82
72591;SHT31;60625;51.212;5.952;2023-07-24T04:21:09;18.53;86.88
72591;SHT31;60625;51.212;5.952;2023-07-24T04:26:10;18.53;86.93
72591;SHT31;60625;51.212;5.952;2023-07-24T04:31:10;18.51;87.11
72591;SHT31;60625;51.212;5.952;2023-07-24T04:36:11;18.50;87.19
72591;SHT31;60625;51.212;5.952;2023-07-24T04:41:11;18.51;87.21
72591;SHT31;60625;51.212;5.952;2023-07-24T04:46:12;18.53;87.14
72591;SHT31;60625;51.212;5.952;2023-07-24T04:51:12;18.54;87.13
72591;SHT31;60625;51.212;5.952;2023-07-24T04:56:13;18.55;87.11
72591;SHT31;60625;51.212;5.952;2023-07-24T05:01:13;18.57;87.06
72591;SHT31;60625;51.212;5.952;2023-07-24T05:06:14;18.59;86.93
72591;SHT31;60625;51.212;5.952;2023-07-24T05:11:14;18.62;86.93
72591;SHT31;60625;51.212;5.952;2023-07-24T05:16:15;18.62;86.95
72591;SHT31;60625;51.212;5.952;2023-07-24T05:21:16;18.63;86.83
72591;SHT31;60625;51.212;5.952;2023-07-24T05:26:16;18.65;86.93
72591;SHT31;60625;51.212;5.952;2023-07-24T05:31:16;18.69;86.86
72591;SHT31;60625;51.212;5.952;2023-07-24T05:36:17;18.77;86.67
72591;SHT31;60625;51.212;5.952;2023-07-24T05:41:17;18.86;86.15
72591;SHT31;60625;51.212;5.952;2023-07-24T05:46:18;18.93;85.82
72591;SHT31;60625;51.212;5.952;2023-07-24T05:51:19;18.99;85.50
72591;SHT31;60625;51.212;5.952;2023-07-24T05:56:19;18.99;84.63
72591;SHT31;60625;51.212;5.952;2023-07-24T06:01:20;18.96;84.35
72591;SHT31;60625;51.212;5.952;2023-07-24T06:06:20;18.92;84.10
72591;SHT31;60625;51.212;5.952;2023-07-24T06:11:21;18.94;84.39
72591;SHT31;60625;51.212;5.952;2023-07-24T06:16:23;18.91;84.19
72591;SHT31;60625;51.212;5.952;2023-07-24T06:21:24;18.89;84.02
72591;SHT31;60625;51.212;5.952;2023-07-24T06:26:24;18.87;83.61
72591;SHT31;60625;51.212;5.952;2023-07-24T06:31:24;18.84;83.12
72591;SHT31;60625;51.212;5.952;2023-07-24T06:36:25;18.83;82.94
72591;SHT31;60625;51.212;5.952;2023-07-24T06:41:26;18.80;82.95
72591;SHT31;60625;51.212;5.952;2023-07-24T06:46:27;18.83;83.15
72591;SHT31;60625;51.212;5.952;2023-07-24T06:51:28;18.93;83.29
72591;SHT31;60625;51.212;5.952;2023-07-24T06:56:28;18.97;83.00
72591;SHT31;60625;51.212;5.952;2023-07-24T07:01:28;19.01;82.83
72591;SHT31;60625;51.212;5.952;2023-07-24T07:06:29;19.08;82.76
72591;SHT31;60625;51.212;5.952;2023-07-24T07:11:29;19.13;82.50
72591;SHT31;60625;51.212;5.952;2023-07-24T07:16:30;19.27;82.65
72591;SHT31;60625;51.212;5.952;2023-07-24T07:21:30;19.41;82.21
72591;SHT31;60625;51.212;5.952;2023-07-24T07:26:31;19.50;82.19
72591;SHT31;60625;51.212;5.952;2023-07-24T07:31:31;19.56;81.93
72591;SHT31;60625;51.212;5.952;2023-07-24T07:36:32;19.51;81.78
72591;SHT31;60625;51.212;5.952;2023-07-24T07:41:32;19.53;81.74
72591;SHT31;60625;51.212;5.952;2023-07-24T07:46:33;19.65;81.68
72591;SHT31;60625;51.212;5.952;2023-07-24T07:51:34;19.78;81.47
72591;SHT31;60625;51.212;5.952;2023-07-24T07:56:34;19.99;81.25
72591;SHT31;60625;51.212;5.952;2023-07-24T08:01:36;20.20;80.76
72591;SHT31;60625;51.212;5.952;2023-07-24T08:06:39;20.36;79.75
72591;SHT31;60625;51.212;5.952;2023-07-24T08:11:39;20.51;78.75
72591;SHT31;60625;51.212;5.952;2023-07-24T08:16:40;20.58;78.68
72591;SHT31;60625;51.212;5.952;2023-07-24T08:21:41;20.68;78.33
72591;SHT31;60625;51.212;5.952;2023-07-24T08:26:41;20.86;78.26
72591;SHT31;60625;51.212;5.952;2023-07-24T08:31:42;20.87;77.55
72591;SHT31;60625;51.212;5.952;2023-07-24T08:36:42;20.81;77.85
72591;SHT31;60625;51.212;5.952;2023-07-24T08:41:43;20.85;78.44
72591;SHT31;60625;51.212;5.952;2023-07-24T08:46:44;20.93;78.89
72591;SHT31;60625;51.212;5.952;2023-07-24T08:51:46;21.09;77.88
72591;SHT31;60625;51.212;5.952;2023-07-24T08:56:47;21.15;77.25
72591;SHT31;60625;51.212;5.952;2023-07-24T09:01:50;21.13;76.88
72591;SHT31;60625;51.212;5.952;2023-07-24T09:06:52;21.20;77.07
72591;SHT31;60625;51.212;5.952;2023-07-24T09:11:53;21.29;76.54
72591;SHT31;60625;51.212;5.952;2023-07-24T09:22:11;21.59;75.89
72591;SHT31;60625;51.212;5.952;2023-07-24T09:27:14;21.66;75.75
72591;SHT31;60625;51.212;5.952;2023-07-24T09:32:18;21.75;75.31
72591;SHT31;60625;51.212;5.952;2023-07-24T09:37:24;21.81;74.61
72591;SHT31;60625;51.212;5.952;2023-07-24T09:42:29;21.82;74.11
72591;SHT31;60625;51.212;5.952;2023-07-24T09:47:32;21.87;73.96
72591;SHT31;60625;51.212;5.952;2023-07-24T09:52:32;21.91;73.43
72591;SHT31;60625;51.212;5.952;2023-07-24T09:57:38;22.00;73.93
72591;SHT31;60625;51.212;5.952;2023-07-24T10:02:39;22.11;72.51
72591;SHT31;60625;51.212;5.952;2023-07-24T10:07:40;22.08;72.40
72591;SHT31;60625;51.212;5.952;2023-07-24T10:12:41;21.99;72.39
72591;SHT31;60625;51.212;5.952;2023-07-24T10:17:43;21.83;72.28
72591;SHT31;60625;51.212;5.952;2023-07-24T10:22:43;21.56;73.16
72591;SHT31;60625;51.212;5.952;2023-07-24T10:27:46;21.31;74.25
72591;SHT31;60625;51.212;5.952;2023-07-24T10:32:49;21.11;75.28
72591;SHT31;60625;51.212;5.952;2023-07-24T10:37:58;20.88;75.89
72591;SHT31;60625;51.212;5.952;2023-07-24T10:48:04;20.66;77.69
72591;SHT31;60625;51.212;5.952;2023-07-24T10:53:05;20.54;78.49
72591;SHT31;60625;51.212;5.952;2023-07-24T10:58:05;20.31;79.38
72591;SHT31;60625;51.212;5.952;2023-07-24T11:03:13;20.09;80.05
72591;SHT31;60625;51.212;5.952;2023-07-24T11:08:18;20.01;80.25
72591;SHT31;60625;51.212;5.952;2023-07-24T11:13:21;20.29;80.90
72591;SHT31;60625;51.212;5.952;2023-07-24T11:18:25;20.64;80.81
72591;SHT31;60625;51.212;5.952;2023-07-24T11:23:28;21.03;80.42
72591;SHT31;60625;51.212;5.952;2023-07-24T11:28:28;21.33;79.76
72591;SHT31;60625;51.212;5.952;2023-07-24T11:33:28;21.61;79.17
72591;SHT31;60625;51.212;5.952;2023-07-24T11:38:29;21.83;78.10
72591;SHT31;60625;51.212;5.952;2023-07-24T11:43:30;21.94;77.68
72591;SHT31;60625;51.212;5.952;2023-07-24T11:48:30;21.85;77.13
72591;SHT31;60625;51.212;5.952;2023-07-24T11:53:31;21.73;77.21
72591;SHT31;60625;51.212;5.952;2023-07-24T11:58:32;21.70;77.14
72591;SHT31;60625;51.212;5.952;2023-07-24T12:03:32;21.69;77.12
72591;SHT31;60625;51.212;5.952;2023-07-24T12:08:33;21.72;77.29
72591;SHT31;60625;51.212;5.952;2023-07-24T12:13:35;21.82;77.65
72591;SHT31;60625;51.212;5.952;2023-07-24T12:18:36;22.19;77.61
72591;SHT31;60625;51.212;5.952;2023-07-24T12:23:37;22.52;75.89
72591;SHT31;60625;51.212;5.952;2023-07-24T12:28:37;22.82;74.29
72591;SHT31;60625;51.212;5.952;2023-07-24T12:33:37;23.01;72.18
72591;SHT31;60625;51.212;5.952;2023-07-24T12:38:38;23.21;71.29
72591;SHT31;60625;51.212;5.952;2023-07-24T12:43:39;23.48;70.01
72591;SHT31;60625;51.212;5.952;2023-07-24T12:48:40;23.51;68.55
72591;SHT31;60625;51.212;5.952;2023-07-24T12:53:40;23.29;68.07
72591;SHT31;60625;51.212;5.952;2023-07-24T12:58:40;23.42;67.39
72591;SHT31;60625;51.212;5.952;2023-07-24T13:03:41;23.62;66.74
72591;SHT31;60625;51.212;5.952;2023-07-24T13:08:41;23.85;65.74
72591;SHT31;60625;51.212;5.952;2023-07-24T13:13:42;23.99;64.72
72591;SHT31;60625;51.212;5.952;2023-07-24T13:18:43;24.09;63.53
72591;SHT31;60625;51.212;5.952;2023-07-24T13:23:44;24.10;62.46
72591;SHT31;60625;51.212;5.952;2023-07-24T13:28:44;23.93;62.63
72591;SHT31;60625;51.212;5.952;2023-07-24T13:33:45;23.85;61.40
72591;SHT31;60625;51.212;5.952;2023-07-24T13:38:46;23.79;61.85
72591;SHT31;60625;51.212;5.952;2023-07-24T13:43:48;23.47;61.42
72591;SHT31;60625;51.212;5.952;2023-07-24T13:48:48;23.39;61.33
72591;SHT31;60625;51.212;5.952;2023-07-24T13:53:49;23.33;60.97
72591;SHT31;60625;51.212;5.952;2023-07-24T13:58:51;23.37;61.60
72591;SHT31;60625;51.212;5.952;2023-07-24T14:03:52;23.54;61.37
72591;SHT31;60625;51.212;5.952;2023-07-24T14:08:52;23.67;61.47
72591;SHT31;60625;51.212;5.952;2023-07-24T14:13:53;23.76;61.66
72591;SHT31;60625;51.212;5.952;2023-07-24T14:18:53;23.82;60.46
72591;SHT31;60625;51.212;5.952;2023-07-24T14:23:54;23.71;60.81
72591;SHT31;60625;51.212;5.952;2023-07-24T14:28:55;23.75;60.99
72591;SHT31;60625;51.212;5.952;2023-07-24T14:33:56;23.74;61.15
72591;SHT31;60625;51.212;5.952;2023-07-24T14:38:56;23.91;61.51
72591;SHT31;60625;51.212;5.952;2023-07-24T14:43:57;24.00;61.51
72591;SHT31;60625;51.212;5.952;2023-07-24T14:48:58;23.83;61.24
72591;SHT31;60625;51.212;5.952;2023-07-24T14:53:58;23.74;61.72
72591;SHT31;60625;51.212;5.952;2023-07-24T14:58:59;23.72;61.76
72591;SHT31;60625;51.212;5.952;2023-07-24T15:03:59;23.62;60.90
72591;SHT31;60625;51.212;5.952;2023-07-24T15:09:00;23.45;60.64
72591;SHT31;60625;51.212;5.952;2023-07-24T15:14:00;23.27;61.11
72591;SHT31;60625;51.212;5.952;2023-07-24T15:19:01;23.06;61.74
72591;SHT31;60625;51.212;5.952;2023-07-24T15:24:01;22.72;61.81
72591;SHT31;60625;51.212;5.952;2023-07-24T15:29:01;22.15;62.44
72591;SHT31;60625;51.212;5.952;2023-07-24T15:34:02;21.73;62.67
72591;SHT31;60625;51.212;5.952;2023-07-24T15:39:03;21.28;63.30
72591;SHT31;60625;51.212;5.952;2023-07-24T15:44:04;20.69;66.12
72591;SHT31;60625;51.212;5.952;2023-07-24T15:49:07;19.71;70.85
72591;SHT31;60625;51.212;5.952;2023-07-24T15:54:07;19.11;70.01
72591;SHT31;60625;51.212;5.952;2023-07-24T15:59:10;18.62;70.15
72591;SHT31;60625;51.212;5.952;2023-07-24T16:04:10;18.32;70.93
72591;SHT31;60625;51.212;5.952;2023-07-24T16:09:11;18.24;72.01
72591;SHT31;60625;51.212;5.952;2023-07-24T16:14:11;18.00;72.93
72591;SHT31;60625;51.212;5.952;2023-07-24T16:24:17;17.68;74.89
72591;SHT31;60625;51.212;5.952;2023-07-24T16:29:20;17.65;75.75
72591;SHT31;60625;51.212;5.952;2023-07-24T16:34:20;17.61;76.54
72591;SHT31;60625;51.212;5.952;2023-07-24T16:39:21;17.58;77.18
72591;SHT31;60625;51.212;5.952;2023-07-24T16:44:23;17.66;77.47
72591;SHT31;60625;51.212;5.952;2023-07-24T16:49:23;17.80;77.75
72591;SHT31;60625;51.212;5.952;2023-07-24T16:54:24;17.98;78.05
72591;SHT31;60625;51.212;5.952;2023-07-24T16:59:24;18.21;78.11
72591;SHT31;60625;51.212;5.952;2023-07-24T17:04:26;18.37;78.00
72591;SHT31;60625;51.212;5.952;2023-07-24T17:09:26;18.54;77.75
72591;SHT31;60625;51.212;5.952;2023-07-24T17:14:27;18.60;77.21
72591;SHT31;60625;51.212;5.952;2023-07-24T17:19:28;18.57;77.51
72591;SHT31;60625;51.212;5.952;2023-07-24T17:24:28;18.59;77.60
72591;SHT31;60625;51.212;5.952;2023-07-24T17:29:28;18.57;78.00
72591;SHT31;60625;51.212;5.952;2023-07-24T17:34:29;18.52;78.42
72591;SHT31;60625;51.212;5.952;2023-07-24T17:39:29;18.44;78.78
72591;SHT31;60625;51.212;5.952;2023-07-24T17:44:30;18.40;79.14
72591;SHT31;60625;51.212;5.952;2023-07-24T17:49:30;18.42;79.16
72591;SHT31;60625;51.212;5.952;2023-07-24T17:54:31;18.45;79.25
72591;SHT31;60625;51.212;5.952;2023-07-24T17:59:31;18.49;79.42
72591;SHT31;60625;51.212;5.952;2023-07-24T18:04:32;18.54;79.52
72591;SHT31;60625;51.212;5.952;2023-07-24T18:09:33;18.57;79.45
72591;SHT31;60625;51.212;5.952;2023-07-24T18:14:33;18.57;79.34
72591;SHT31;60625;51.212;5.952;2023-07-24T18:19:34;18.57;79.57
72591;SHT31;60625;51.212;5.952;2023-07-24T18:24:34;18.56;79.56
72591;SHT31;60625;51.212;5.952;2023-07-24T18:29:35;18.57;79.67
72591;SHT31;60625;51.212;5.952;2023-07-24T18:34:35;18.56;79.80
72591;SHT31;60625;51.212;5.952;2023-07-24T18:39:36;18.52;79.86
72591;SHT31;60625;51.212;5.952;2023-07-24T18:44:36;18.48;80.25
72591;SHT31;60625;51.212;5.952;2023-07-24T18:49:37;18.46;80.39
72591;SHT31;60625;51.212;5.952;2023-07-24T18:54:38;18.47;80.66
72591;SHT31;60625;51.212;5.952;2023-07-24T18:59:39;18.52;80.82
72591;SHT31;60625;51.212;5.952;2023-07-24T19:04:40;18.47;80.85
72591;SHT31;60625;51.212;5.952;2023-07-24T19:09:40;18.41;80.94
72591;SHT31;60625;51.212;5.952;2023-07-24T19:14:41;18.35;81.05
72591;SHT31;60625;51.212;5.952;2023-07-24T19:19:41;18.31;81.28
72591;SHT31;60625;51.212;5.952;2023-07-24T19:24:42;18.25;81.41
72591;SHT31;60625;51.212;5.952;2023-07-24T19:29:43;18.16;81.39
72591;SHT31;60625;51.212;5.952;2023-07-24T19:34:43;18.05;81.26
72591;SHT31;60625;51.212;5.952;2023-07-24T19:39:44;17.99;81.25
72591;SHT31;60625;51.212;5.952;2023-07-24T19:44:44;17.96;81.39
72591;SHT31;60625;51.212;5.952;2023-07-24T19:49:45;17.90;81.19
72591;SHT31;60625;51.212;5.952;2023-07-24T19:54:46;17.84;81.26
72591;SHT31;60625;51.212;5.952;2023-07-24T19:59:47;17.78;81.47
72591;SHT31;60625;51.212;5.952;2023-07-24T20:04:48;17.71;81.43
72591;SHT31;60625;51.212;5.952;2023-07-24T20:09:48;17.67;81.44
72591;SHT31;60625;51.212;5.952;2023-07-24T20:14:50;17.64;81.68
72591;SHT31;60625;51.212;5.952;2023-07-24T20:19:51;17.64;81.84
72591;SHT31;60625;51.212;5.952;2023-07-24T20:24:52;17.61;81.90
72591;SHT31;60625;51.212;5.952;2023-07-24T20:29:52;17.54;81.86
72591;SHT31;60625;51.212;5.952;2023-07-24T20:34:54;17.46;81.84
72591;SHT31;60625;51.212;5.952;2023-07-24T20:39:54;17.41;81.81
72591;SHT31;60625;51.212;5.952;2023-07-24T20:44:55;17.35;81.76
72591;SHT31;60625;51.212;5.952;2023-07-24T20:49:57;17.22;81.71
72591;SHT31;60625;51.212;5.952;2023-07-24T20:54:58;17.12;81.82
72591;SHT31;60625;51.212;5.952;2023-07-24T20:59:59;17.05;81.85
72591;SHT31;60625;51.212;5.952;2023-07-24T21:04:59;17.01;82.23
72591;SHT31;60625;51.212;5.952;2023-07-24T21:10:00;17.06;82.22
72591;SHT31;60625;51.212;5.952;2023-07-24T21:15:00;17.02;81.71
72591;SHT31;60625;51.212;5.952;2023-07-24T21:20:05;16.95;81.58
72591;SHT31;60625;51.212;5.952;2023-07-24T21:25:06;16.90;81.63
72591;SHT31;60625;51.212;5.952;2023-07-24T21:30:08;16.87;81.53
72591;SHT31;60625;51.212;5.952;2023-07-24T21:35:09;16.84;81.46
72591;SHT31;60625;51.212;5.952;2023-07-24T21:40:10;16.80;81.69
72591;SHT31;60625;51.212;5.952;2023-07-24T21:45:10;16.83;81.96
72591;SHT31;60625;51.212;5.952;2023-07-24T21:50:11;16.85;81.98
72591;SHT31;60625;51.212;5.952;2023-07-24T21:55:11;16.88;81.89
72591;SHT31;60625;51.212;5.952;2023-07-24T22:00:12;16.84;82.07
72591;SHT31;60625;51.212;5.952;2023-07-24T22:05:13;16.82;82.07
72591;SHT31;60625;51.212;5.952;2023-07-24T22:10:14;16.80;82.43
72591;SHT31;60625;51.212;5.952;2023-07-24T22:15:15;16.82;82.47
72591;SHT31;60625;51.212;5.952;2023-07-24T22:20:16;16.82;82.21
72591;SHT31;60625;51.212;5.952;2023-07-24T22:25:17;16.82;82.36
72591;SHT31;60625;51.212;5.952;2023-07-24T22:30:17;16.79;82.70
72591;SHT31;60625;51.212;5.952;2023-07-24T22:35:18;16.78;82.82
72591;SHT31;60625;51.212;5.952;2023-07-24T22:40:18;16.82;82.79
72591;SHT31;60625;51.212;5.952;2023-07-24T22:45:19;16.81;82.94
72591;SHT31;60625;51.212;5.952;2023-07-24T22:50:20;16.82;82.99
72591;SHT31;60625;51.212;5.952;2023-07-24T22:55:21;16.79;82.43
72591;SHT31;60625;51.212;5.952;2023-07-24T23:00:22;16.77;82.35
72591;SHT31;60625;51.212;5.952;2023-07-24T23:05:22;16.78;82.39
72591;SHT31;60625;51.212;5.952;2023-07-24T23:10:23;16.79;82.26
72591;SHT31;60625;51.212;5.952;2023-07-24T23:15:23;16.77;82.22
72591;SHT31;60625;51.212;5.952;2023-07-24T23:20:24;16.75;82.19
72591;SHT31;60625;51.212;5.952;2023-07-24T23:25:24;16.71;82.32
72591;SHT31;60625;51.212;5.952;2023-07-24T23:30:25;16.67;82.13
72591;SHT31;60625;51.212;5.952;2023-07-24T23:35:25;16.60;81.85
72591;SHT31;60625;51.212;5.952;2023-07-24T23:40:26;16.56;81.66
72591;SHT31;60625;51.212;5.952;2023-07-24T23:45:30;16.53;81.56
72591;SHT31;60625;51.212;5.952;2023-07-24T23:50:35;16.50;81.56
72591;SHT31;60625;51.212;5.952;2023-07-24T23:55:37;16.49;81.33
